Tunquen — CA2993 — position and weather

sailwx.info

Track history (hours):
 
Tides and Currents Weather Stations Pressure Air Temp Water Temp Dewpoint Dewpoint Depression Visibility Wind Speed Wind Dir Waves Ship Positions

Tunquen

Last reported at 2018-Apr-19 16:11 UTC. Time now 2018-Apr-20 06:51 UTC.
Position S 32°46' W 071°31'.

Length 31 m; draft 4.5 m.

Type: Tug. MMSI: 725000736.

Date/timePositionNaut miles runAvg speedWind from/ knotsBaromVisibWave heightAir tempDewpointWater temp
2018-Apr-19 16:11S 32°46' W 071°31'0 0.0
2018-Apr-19 16:00S 32°46' W 071°31'0 0.0
2018-Apr-19 06:29S 32°46' W 071°31'0 0.0
2018-Apr-19 00:21S 32°47' W 071°32'0 0.0
2018-Apr-19 00:00S 32°47' W 071°32'0 0.0
2018-Apr-18 23:30S 32°47' W 071°32'0 0.2
2018-Apr-18 22:49S 32°46' W 071°31'0 0.0
2018-Apr-18 22:28S 32°46' W 071°31'0 0.0
2018-Apr-18 21:59S 32°46' W 071°31'0 0.0
2018-Apr-18 21:30S 32°46' W 071°31'0 0.0
2018-Apr-18 20:59S 32°46' W 071°31'0 0.0
2018-Apr-18 20:30S 32°46' W 071°31'0 0.0
2018-Apr-18 20:01S 32°46' W 071°31'0 0.0
2018-Apr-18 19:30S 32°46' W 071°31'4 1.9
2018-Apr-18 17:22S 32°49' W 071°35'3 8.9
2018-Apr-18 17:00S 32°52' W 071°35'4 8.9
2018-Apr-18 16:30S 32°57' W 071°36'4 8.7
2018-Apr-18 16:00S 33°01' W 071°37'1 1.2
2018-Apr-18 14:52S 33°02' W 071°37'0 0.0
2018-Apr-16 20:26S 33°02' W 071°37'0 0.0
2018-Apr-16 15:55S 33°02' W 071°37'0 0.0
2018-Apr-16 08:48S 33°02' W 071°37'0 0.0
2018-Apr-16 08:30S 33°02' W 071°37'0 0.0
2018-Apr-15 22:42S 33°02' W 071°37'0 0.0
2018-Apr-15 22:23S 33°02' W 071°37'0 0.0
2018-Apr-15 22:00S 33°02' W 071°37'0 0.0
2018-Apr-15 21:30S 33°02' W 071°37'0 0.0
2018-Apr-15 21:00S 33°02' W 071°37'0 0.0
2018-Apr-15 20:29S 33°02' W 071°37'0 0.0
2018-Apr-15 20:00S 33°02' W 071°37'0 0.0
2018-Apr-15 19:30S 33°02' W 071°37'0 0.0
2018-Apr-15 18:59S 33°02' W 071°37'0 0.0
2018-Apr-15 18:30S 33°02' W 071°37'0 0.0
2018-Apr-15 18:00S 33°02' W 071°37'0 0.0
2018-Apr-15 17:30S 33°02' W 071°37'0 0.0
2018-Apr-15 17:00S 33°02' W 071°37'0 0.0
2018-Apr-15 16:29S 33°02' W 071°37'0 0.0
2018-Apr-15 15:58S 33°02' W 071°37'0 0.0
2018-Apr-15 15:29S 33°02' W 071°37'0 0.0
2018-Apr-15 15:00S 33°02' W 071°37'0 0.0
2018-Apr-15 14:29S 33°02' W 071°37'0 0.0
2018-Apr-15 14:00S 33°02' W 071°37'0 0.0
2018-Apr-15 13:30S 33°02' W 071°37'0 0.0
2018-Apr-15 13:00S 33°02' W 071°37'0 0.0
2018-Apr-15 12:30S 33°02' W 071°37'0 0.0
2018-Apr-15 12:00S 33°02' W 071°37'0 0.0
2018-Apr-15 11:30S 33°02' W 071°37'0 0.0
2018-Apr-15 11:00S 33°02' W 071°37'0 0.0
2018-Apr-15 09:52S 33°02' W 071°37'0 0.0
2018-Apr-15 09:25S 33°02' W 071°37'0 0.0
2018-Apr-15 08:36S 33°02' W 071°37'0 0.0
2018-Apr-15 08:29S 33°02' W 071°37'0 0.0
2018-Apr-15 07:06S 33°02' W 071°37'0 0.0
2018-Apr-15 06:59S 33°02' W 071°37'0 0.0
2018-Apr-15 05:00S 33°02' W 071°37'0 0.0
2018-Apr-15 04:27S 33°02' W 071°37'0 0.0
2018-Apr-15 03:42S 33°02' W 071°37'0 0.0
2018-Apr-15 03:17S 33°02' W 071°37'0 0.0
2018-Apr-15 02:51S 33°02' W 071°37'0 0.0
2018-Apr-15 02:19S 33°02' W 071°37'0 1.3
2018-Apr-15 02:00S 33°02' W 071°37'0 0.3
2018-Apr-15 00:53S 33°02' W 071°37'0 0.7
2018-Apr-15 00:30S 33°02' W 071°37'0 0.0
2018-Apr-15 00:00S 33°02' W 071°37'0 0.0
2018-Apr-14 23:28S 33°02' W 071°37'0 0.0
2018-Apr-14 22:56S 33°02' W 071°37'0 0.0
2018-Apr-14 22:30S 33°02' W 071°37'0 0.0
2018-Apr-14 22:00S 33°02' W 071°37'0 0.0
2018-Apr-14 21:30S 33°02' W 071°37'0 0.0
2018-Apr-14 21:00S 33°02' W 071°37'0 0.0
2018-Apr-14 20:30S 33°02' W 071°37'0 0.0
2018-Apr-14 20:00S 33°02' W 071°37'0 0.0
2018-Apr-14 19:30S 33°02' W 071°37'0 0.0
2018-Apr-14 19:00S 33°02' W 071°37'0 0.0
2018-Apr-14 18:30S 33°02' W 071°37'0 0.0
2018-Apr-14 18:00S 33°02' W 071°37'0 0.0
2018-Apr-14 17:30S 33°02' W 071°37'0 0.0
2018-Apr-14 17:00S 33°02' W 071°37'0 0.0
2018-Apr-14 16:30S 33°02' W 071°37'0 0.0
2018-Apr-14 06:42S 33°02' W 071°37'0 0.0
2018-Apr-14 06:30S 33°02' W 071°37'0 0.0
2018-Apr-14 06:00S 33°02' W 071°37'0 0.0
2018-Apr-14 05:30S 33°02' W 071°37'0 0.0
2018-Apr-14 05:00S 33°02' W 071°37'0 0.0
2018-Apr-14 04:30S 33°02' W 071°37'0 0.0
2018-Apr-14 04:00S 33°02' W 071°37'0 0.0
2018-Apr-14 03:30S 33°02' W 071°37'0 0.0
2018-Apr-14 02:58S 33°02' W 071°37'0 0.0
2018-Apr-14 02:28S 33°02' W 071°37'0 0.0
2018-Apr-14 01:55S 33°02' W 071°37'0 0.0
2018-Apr-14 01:27S 33°02' W 071°37'0 0.0
2018-Apr-14 00:59S 33°02' W 071°37'0 0.0
2018-Apr-14 00:30S 33°02' W 071°37'0 0.0
2018-Apr-14 00:00S 33°02' W 071°37'0 0.0
2018-Apr-13 23:30S 33°02' W 071°37'0 0.0
2018-Apr-13 18:54S 33°02' W 071°37'0 0.0
2018-Apr-13 10:14S 33°02' W 071°37'0 0.0
2018-Apr-13 10:00S 33°02' W 071°37'0 0.4
2018-Apr-13 09:21S 33°02' W 071°37'1 2.7
2018-Apr-13 08:56S 33°02' W 071°36'1 2.8
2018-Apr-13 08:30S 33°02' W 071°37'0 0.0
2018-Apr-13 07:59S 33°02' W 071°37'0 0.0
2018-Apr-13 07:30S 33°02' W 071°37'0 0.0
2018-Apr-13 07:00S 33°02' W 071°37'0 0.0
2018-Apr-13 06:30S 33°02' W 071°37'0 0.0
2018-Apr-13 05:59S 33°02' W 071°37'0 0.0
2018-Apr-13 05:30S 33°02' W 071°37'0 0.0
2018-Apr-13 05:00S 33°02' W 071°37'0 0.0
2018-Apr-13 04:27S 33°02' W 071°37'0 0.0
2018-Apr-13 04:00S 33°02' W 071°37'4 7.4
2018-Apr-13 03:30S 32°59' W 071°36'4 8.3
2018-Apr-13 03:00S 32°55' W 071°36'4 8.1
2018-Apr-13 02:30S 32°51' W 071°35'4 8.1
2018-Apr-13 02:00S 32°47' W 071°34'3 4.1
2018-Apr-13 01:19S 32°46' W 071°30'1 0.6
2018-Apr-12 23:54S 32°46' W 071°31'0 0.0
2018-Apr-12 23:24S 32°46' W 071°31'0 0.0
2018-Apr-12 22:56S 32°46' W 071°31'0 0.0
2018-Apr-12 22:29S 32°46' W 071°31'0 0.0
2018-Apr-12 21:38S 32°46' W 071°31'0 0.9
2018-Apr-12 21:25S 32°46' W 071°31'3 5.6
2018-Apr-12 20:57S 32°47' W 071°34'4 8.4
2018-Apr-12 20:30S 32°51' W 071°35'4 8.5
2018-Apr-12 20:00S 32°55' W 071°36'4 8.5
2018-Apr-12 19:29S 32°60' W 071°37'3 1.4
2018-Apr-12 17:24S 33°02' W 071°37'0 0.0
2018-Apr-12 16:52S 33°02' W 071°37'0 0.0
2018-Apr-12 16:30S 33°02' W 071°37'0 0.0
2018-Apr-12 16:00S 33°02' W 071°37'0 0.0
2018-Apr-12 15:30S 33°02' W 071°37'0 0.0
2018-Apr-12 15:00S 33°02' W 071°37'0 0.0
2018-Apr-12 14:30S 33°02' W 071°37'0 0.0
2018-Apr-12 13:49S 33°02' W 071°37'0 0.0
2018-Apr-12 11:52S 33°02' W 071°37'0 0.0
2018-Apr-12 05:31S 33°02' W 071°37'0 0.0
2018-Apr-12 05:30S 33°02' W 071°37'0 0.0
2018-Apr-12 04:59S 33°02' W 071°37'0 0.8
2018-Apr-12 04:29S 33°02' W 071°38'0 0.6
2018-Apr-12 03:51S 33°02' W 071°37'0 0.1
2018-Apr-12 03:29S 33°02' W 071°37'0 0.0
2018-Apr-12 03:00S 33°02' W 071°37'0 0.0
2018-Apr-12 02:30S 33°02' W 071°37'0 0.0
2018-Apr-12 02:00S 33°02' W 071°37'0 0.3
2018-Apr-12 00:47S 33°02' W 071°37'1 1.4
2018-Apr-12 00:15S 33°02' W 071°37'0 1.5
2018-Apr-12 00:00S 33°02' W 071°37'1 1.0
2018-Apr-11 23:29S 33°02' W 071°37'0 0.0
2018-Apr-11 23:00S 33°02' W 071°37'0 0.0
2018-Apr-11 22:30S 33°02' W 071°37'0 0.0
2018-Apr-11 22:00S 33°02' W 071°37'0 0.1
2018-Apr-11 21:30S 33°02' W 071°37'4 8.3
2018-Apr-11 20:59S 32°58' W 071°36'4 8.8
2018-Apr-11 20:30S 32°54' W 071°35'5 9.0
2018-Apr-11 20:00S 32°50' W 071°35'5 1.4
2018-Apr-11 16:24S 32°46' W 071°30'1 0.2
2018-Apr-11 13:33S 32°46' W 071°31'0 0.1
2018-Apr-11 13:28S 32°46' W 071°31'2 0.2
2018-Apr-11 01:51S 32°45' W 071°31'2 0.2
2018-Apr-10 16:06S 32°46' W 071°31'0 3.9
2018-Apr-10 16:00S 32°46' W 071°30'  
Track history (hours):
 
Tides and Currents Weather Stations Pressure Air Temp Water Temp Dewpoint Dewpoint Depression Visibility Wind Speed Wind Dir Waves Ship Positions

Tunquen

Last reported at 2018-Apr-19 16:11 UTC. Time now 2018-Apr-20 06:51 UTC.
Position S 32°46' W 071°31'.

Length 31 m; draft 4.5 m.

Type: Tug. MMSI: 725000736.

Date/timePositionNaut miles runAvg speedWind from/ knotsBaromVisibWave heightAir tempDewpointWater temp
2018-Apr-19 16:11S 32°46' W 071°31'0 0.0
2018-Apr-19 16:00S 32°46' W 071°31'0 0.0
2018-Apr-19 06:29S 32°46' W 071°31'0 0.0
2018-Apr-19 00:21S 32°47' W 071°32'0 0.0
2018-Apr-19 00:00S 32°47' W 071°32'0 0.0
2018-Apr-18 23:30S 32°47' W 071°32'0 0.2
2018-Apr-18 22:49S 32°46' W 071°31'0 0.0
2018-Apr-18 22:28S 32°46' W 071°31'0 0.0
2018-Apr-18 21:59S 32°46' W 071°31'0 0.0
2018-Apr-18 21:30S 32°46' W 071°31'0 0.0
2018-Apr-18 20:59S 32°46' W 071°31'0 0.0
2018-Apr-18 20:30S 32°46' W 071°31'0 0.0
2018-Apr-18 20:01S 32°46' W 071°31'0 0.0
2018-Apr-18 19:30S 32°46' W 071°31'4 1.9
2018-Apr-18 17:22S 32°49' W 071°35'3 8.9
2018-Apr-18 17:00S 32°52' W 071°35'4 8.9
2018-Apr-18 16:30S 32°57' W 071°36'4 8.7
2018-Apr-18 16:00S 33°01' W 071°37'1 1.2
2018-Apr-18 14:52S 33°02' W 071°37'0 0.0
2018-Apr-16 20:26S 33°02' W 071°37'0 0.0
2018-Apr-16 15:55S 33°02' W 071°37'0 0.0
2018-Apr-16 08:48S 33°02' W 071°37'0 0.0
2018-Apr-16 08:30S 33°02' W 071°37'0 0.0
2018-Apr-15 22:42S 33°02' W 071°37'0 0.0
2018-Apr-15 22:23S 33°02' W 071°37'0 0.0
2018-Apr-15 22:00S 33°02' W 071°37'0 0.0
2018-Apr-15 21:30S 33°02' W 071°37'0 0.0
2018-Apr-15 21:00S 33°02' W 071°37'0 0.0
2018-Apr-15 20:29S 33°02' W 071°37'0 0.0
2018-Apr-15 20:00S 33°02' W 071°37'0 0.0
2018-Apr-15 19:30S 33°02' W 071°37'0 0.0
2018-Apr-15 18:59S 33°02' W 071°37'0 0.0
2018-Apr-15 18:30S 33°02' W 071°37'0 0.0
2018-Apr-15 18:00S 33°02' W 071°37'0 0.0
2018-Apr-15 17:30S 33°02' W 071°37'0 0.0
2018-Apr-15 17:00S 33°02' W 071°37'0 0.0
2018-Apr-15 16:29S 33°02' W 071°37'0 0.0
2018-Apr-15 15:58S 33°02' W 071°37'0 0.0
2018-Apr-15 15:29S 33°02' W 071°37'0 0.0
2018-Apr-15 15:00S 33°02' W 071°37'0 0.0
2018-Apr-15 14:29S 33°02' W 071°37'0 0.0
2018-Apr-15 14:00S 33°02' W 071°37'0 0.0
2018-Apr-15 13:30S 33°02' W 071°37'0 0.0
2018-Apr-15 13:00S 33°02' W 071°37'0 0.0
2018-Apr-15 12:30S 33°02' W 071°37'0 0.0
2018-Apr-15 12:00S 33°02' W 071°37'0 0.0
2018-Apr-15 11:30S 33°02' W 071°37'0 0.0
2018-Apr-15 11:00S 33°02' W 071°37'0 0.0
2018-Apr-15 09:52S 33°02' W 071°37'0 0.0
2018-Apr-15 09:25S 33°02' W 071°37'0 0.0
2018-Apr-15 08:36S 33°02' W 071°37'0 0.0
2018-Apr-15 08:29S 33°02' W 071°37'0 0.0
2018-Apr-15 07:06S 33°02' W 071°37'0 0.0
2018-Apr-15 06:59S 33°02' W 071°37'0 0.0
2018-Apr-15 05:00S 33°02' W 071°37'0 0.0
2018-Apr-15 04:27S 33°02' W 071°37'0 0.0
2018-Apr-15 03:42S 33°02' W 071°37'0 0.0
2018-Apr-15 03:17S 33°02' W 071°37'0 0.0
2018-Apr-15 02:51S 33°02' W 071°37'0 0.0
2018-Apr-15 02:19S 33°02' W 071°37'0 1.3
2018-Apr-15 02:00S 33°02' W 071°37'0 0.3
2018-Apr-15 00:53S 33°02' W 071°37'0 0.7
2018-Apr-15 00:30S 33°02' W 071°37'0 0.0
2018-Apr-15 00:00S 33°02' W 071°37'0 0.0
2018-Apr-14 23:28S 33°02' W 071°37'0 0.0
2018-Apr-14 22:56S 33°02' W 071°37'0 0.0
2018-Apr-14 22:30S 33°02' W 071°37'0 0.0
2018-Apr-14 22:00S 33°02' W 071°37'0 0.0
2018-Apr-14 21:30S 33°02' W 071°37'0 0.0
2018-Apr-14 21:00S 33°02' W 071°37'0 0.0
2018-Apr-14 20:30S 33°02' W 071°37'0 0.0
2018-Apr-14 20:00S 33°02' W 071°37'0 0.0
2018-Apr-14 19:30S 33°02' W 071°37'0 0.0
2018-Apr-14 19:00S 33°02' W 071°37'0 0.0
2018-Apr-14 18:30S 33°02' W 071°37'0 0.0
2018-Apr-14 18:00S 33°02' W 071°37'0 0.0
2018-Apr-14 17:30S 33°02' W 071°37'0 0.0
2018-Apr-14 17:00S 33°02' W 071°37'0 0.0
2018-Apr-14 16:30S 33°02' W 071°37'0 0.0
2018-Apr-14 06:42S 33°02' W 071°37'0 0.0
2018-Apr-14 06:30S 33°02' W 071°37'0 0.0
2018-Apr-14 06:00S 33°02' W 071°37'0 0.0
2018-Apr-14 05:30S 33°02' W 071°37'0 0.0
2018-Apr-14 05:00S 33°02' W 071°37'0 0.0
2018-Apr-14 04:30S 33°02' W 071°37'0 0.0
2018-Apr-14 04:00S 33°02' W 071°37'0 0.0
2018-Apr-14 03:30S 33°02' W 071°37'0 0.0
2018-Apr-14 02:58S 33°02' W 071°37'0 0.0
2018-Apr-14 02:28S 33°02' W 071°37'0 0.0
2018-Apr-14 01:55S 33°02' W 071°37'0 0.0
2018-Apr-14 01:27S 33°02' W 071°37'0 0.0
2018-Apr-14 00:59S 33°02' W 071°37'0 0.0
2018-Apr-14 00:30S 33°02' W 071°37'0 0.0
2018-Apr-14 00:00S 33°02' W 071°37'0 0.0
2018-Apr-13 23:30S 33°02' W 071°37'0 0.0
2018-Apr-13 18:54S 33°02' W 071°37'0 0.0
2018-Apr-13 10:14S 33°02' W 071°37'0 0.0
2018-Apr-13 10:00S 33°02' W 071°37'0 0.4
2018-Apr-13 09:21S 33°02' W 071°37'1 2.7
2018-Apr-13 08:56S 33°02' W 071°36'1 2.8
2018-Apr-13 08:30S 33°02' W 071°37'0 0.0
2018-Apr-13 07:59S 33°02' W 071°37'0 0.0
2018-Apr-13 07:30S 33°02' W 071°37'0 0.0
2018-Apr-13 07:00S 33°02' W 071°37'0 0.0
2018-Apr-13 06:30S 33°02' W 071°37'0 0.0
2018-Apr-13 05:59S 33°02' W 071°37'0 0.0
2018-Apr-13 05:30S 33°02' W 071°37'0 0.0
2018-Apr-13 05:00S 33°02' W 071°37'0 0.0
2018-Apr-13 04:27S 33°02' W 071°37'0 0.0
2018-Apr-13 04:00S 33°02' W 071°37'4 7.4
2018-Apr-13 03:30S 32°59' W 071°36'4 8.3
2018-Apr-13 03:00S 32°55' W 071°36'4 8.1
2018-Apr-13 02:30S 32°51' W 071°35'4 8.1
2018-Apr-13 02:00S 32°47' W 071°34'3 4.1
2018-Apr-13 01:19S 32°46' W 071°30'1 0.6
2018-Apr-12 23:54S 32°46' W 071°31'0 0.0
2018-Apr-12 23:24S 32°46' W 071°31'0 0.0
2018-Apr-12 22:56S 32°46' W 071°31'0 0.0
2018-Apr-12 22:29S 32°46' W 071°31'0 0.0
2018-Apr-12 21:38S 32°46' W 071°31'0 0.9
2018-Apr-12 21:25S 32°46' W 071°31'3 5.6
2018-Apr-12 20:57S 32°47' W 071°34'4 8.4
2018-Apr-12 20:30S 32°51' W 071°35'4 8.5
2018-Apr-12 20:00S 32°55' W 071°36'4 8.5
2018-Apr-12 19:29S 32°60' W 071°37'3 1.4
2018-Apr-12 17:24S 33°02' W 071°37'0 0.0
2018-Apr-12 16:52S 33°02' W 071°37'0 0.0
2018-Apr-12 16:30S 33°02' W 071°37'0 0.0
2018-Apr-12 16:00S 33°02' W 071°37'0 0.0
2018-Apr-12 15:30S 33°02' W 071°37'0 0.0
2018-Apr-12 15:00S 33°02' W 071°37'0 0.0
2018-Apr-12 14:30S 33°02' W 071°37'0 0.0
2018-Apr-12 13:49S 33°02' W 071°37'0 0.0
2018-Apr-12 11:52S 33°02' W 071°37'0 0.0
2018-Apr-12 05:31S 33°02' W 071°37'0 0.0
2018-Apr-12 05:30S 33°02' W 071°37'0 0.0
2018-Apr-12 04:59S 33°02' W 071°37'0 0.8
2018-Apr-12 04:29S 33°02' W 071°38'0 0.6
2018-Apr-12 03:51S 33°02' W 071°37'0 0.1
2018-Apr-12 03:29S 33°02' W 071°37'0 0.0
2018-Apr-12 03:00S 33°02' W 071°37'0 0.0
2018-Apr-12 02:30S 33°02' W 071°37'0 0.0
2018-Apr-12 02:00S 33°02' W 071°37'0 0.3
2018-Apr-12 00:47S 33°02' W 071°37'1 1.4
2018-Apr-12 00:15S 33°02' W 071°37'0 1.5
2018-Apr-12 00:00S 33°02' W 071°37'1 1.0
2018-Apr-11 23:29S 33°02' W 071°37'0 0.0
2018-Apr-11 23:00S 33°02' W 071°37'0 0.0
2018-Apr-11 22:30S 33°02' W 071°37'0 0.0
2018-Apr-11 22:00S 33°02' W 071°37'0 0.1
2018-Apr-11 21:30S 33°02' W 071°37'4 8.3
2018-Apr-11 20:59S 32°58' W 071°36'4 8.8
2018-Apr-11 20:30S 32°54' W 071°35'5 9.0
2018-Apr-11 20:00S 32°50' W 071°35'5 1.4
2018-Apr-11 16:24S 32°46' W 071°30'1 0.2
2018-Apr-11 13:33S 32°46' W 071°31'0 0.1
2018-Apr-11 13:28S 32°46' W 071°31'2 0.2
2018-Apr-11 01:51S 32°45' W 071°31'2 0.2
2018-Apr-10 16:06S 32°46' W 071°31'0 3.9
2018-Apr-10 16:00S 32°46' W 071°30'  

Dump ship's entire track history